sensor_id;sensor_type;location;lat;lon;timestamp;P1;durP1;ratioP1;P2;durP2;ratioP2
75417;SDS011;63997;52.112;5.420;2023-08-06T00:01:22;5.45;;;4.15;;
75417;SDS011;63997;52.112;5.420;2023-08-06T00:03:49;4.63;;;4.00;;
75417;SDS011;63997;52.112;5.420;2023-08-06T00:06:15;6.25;;;3.80;;
75417;SDS011;63997;52.112;5.420;2023-08-06T00:08:42;5.97;;;3.97;;
75417;SDS011;63997;52.112;5.420;2023-08-06T00:11:08;4.97;;;4.25;;
75417;SDS011;63997;52.112;5.420;2023-08-06T00:13:35;5.03;;;3.70;;
75417;SDS011;63997;52.112;5.420;2023-08-06T00:16:11;9.17;;;3.40;;
75417;SDS011;63997;52.112;5.420;2023-08-06T00:18:39;7.50;;;3.83;;
75417;SDS011;63997;52.112;5.420;2023-08-06T00:21:06;4.70;;;4.15;;
75417;SDS011;63997;52.112;5.420;2023-08-06T00:23:36;5.75;;;3.88;;
75417;SDS011;63997;52.112;5.420;2023-08-06T00:26:02;5.93;;;4.18;;
75417;SDS011;63997;52.112;5.420;2023-08-06T00:28:29;4.37;;;3.40;;
75417;SDS011;63997;52.112;5.420;2023-08-06T00:30:56;7.78;;;3.85;;
75417;SDS011;63997;52.112;5.420;2023-08-06T00:33:23;5.40;;;4.05;;
75417;SDS011;63997;52.112;5.420;2023-08-06T00:35:50;8.13;;;4.05;;
75417;SDS011;63997;52.112;5.420;2023-08-06T00:38:16;5.00;;;4.10;;
75417;SDS011;63997;52.112;5.420;2023-08-06T00:40:43;6.53;;;3.83;;
75417;SDS011;63997;52.112;5.420;2023-08-06T00:43:10;5.75;;;3.58;;
75417;SDS011;63997;52.112;5.420;2023-08-06T00:45:36;4.47;;;3.40;;
75417;SDS011;63997;52.112;5.420;2023-08-06T00:48:03;8.35;;;3.67;;
75417;SDS011;63997;52.112;5.420;2023-08-06T00:50:31;6.07;;;4.38;;
75417;SDS011;63997;52.112;5.420;2023-08-06T00:52:58;5.63;;;4.10;;
75417;SDS011;63997;52.112;5.420;2023-08-06T00:55:25;4.57;;;3.35;;
75417;SDS011;63997;52.112;5.420;2023-08-06T00:57:52;5.88;;;3.83;;
75417;SDS011;63997;52.112;5.420;2023-08-06T01:00:22;4.97;;;4.13;;
75417;SDS011;63997;52.112;5.420;2023-08-06T01:02:50;9.13;;;4.18;;
75417;SDS011;63997;52.112;5.420;2023-08-06T01:05:18;4.37;;;3.53;;
75417;SDS011;63997;52.112;5.420;2023-08-06T01:13:42;6.15;;;4.32;;
75417;SDS011;63997;52.112;5.420;2023-08-06T01:16:17;5.18;;;3.97;;
75417;SDS011;63997;52.112;5.420;2023-08-06T01:18:46;4.83;;;4.33;;
75417;SDS011;63997;52.112;5.420;2023-08-06T01:21:15;5.53;;;4.30;;
75417;SDS011;63997;52.112;5.420;2023-08-06T01:23:43;6.97;;;4.10;;
75417;SDS011;63997;52.112;5.420;2023-08-06T01:28:46;7.45;;;4.53;;
75417;SDS011;63997;52.112;5.420;2023-08-06T01:31:24;6.73;;;4.43;;
75417;SDS011;63997;52.112;5.420;2023-08-06T01:33:53;6.28;;;4.30;;
75417;SDS011;63997;52.112;5.420;2023-08-06T01:36:22;6.93;;;5.10;;
75417;SDS011;63997;52.112;5.420;2023-08-06T01:38:50;7.85;;;4.85;;
75417;SDS011;63997;52.112;5.420;2023-08-06T01:41:18;6.18;;;4.57;;
75417;SDS011;63997;52.112;5.420;2023-08-06T01:43:44;6.27;;;4.63;;
75417;SDS011;63997;52.112;5.420;2023-08-06T01:46:11;6.50;;;4.40;;
75417;SDS011;63997;52.112;5.420;2023-08-06T01:48:37;8.90;;;4.93;;
75417;SDS011;63997;52.112;5.420;2023-08-06T01:51:04;6.53;;;4.80;;
75417;SDS011;63997;52.112;5.420;2023-08-06T01:53:32;6.63;;;4.82;;
75417;SDS011;63997;52.112;5.420;2023-08-06T01:55:59;6.90;;;4.87;;
75417;SDS011;63997;52.112;5.420;2023-08-06T01:58:25;7.30;;;5.38;;
75417;SDS011;63997;52.112;5.420;2023-08-06T02:00:52;7.78;;;5.72;;
75417;SDS011;63997;52.112;5.420;2023-08-06T02:03:18;7.75;;;5.07;;
75417;SDS011;63997;52.112;5.420;2023-08-06T02:05:45;7.82;;;5.13;;
75417;SDS011;63997;52.112;5.420;2023-08-06T02:08:11;7.87;;;4.90;;
75417;SDS011;63997;52.112;5.420;2023-08-06T02:10:38;7.07;;;4.70;;
75417;SDS011;63997;52.112;5.420;2023-08-06T02:13:05;7.18;;;4.63;;
75417;SDS011;63997;52.112;5.420;2023-08-06T02:15:31;7.70;;;5.05;;
75417;SDS011;63997;52.112;5.420;2023-08-06T02:17:57;7.47;;;5.07;;
75417;SDS011;63997;52.112;5.420;2023-08-06T02:20:24;8.17;;;5.40;;
75417;SDS011;63997;52.112;5.420;2023-08-06T02:22:50;12.05;;;5.32;;
75417;SDS011;63997;52.112;5.420;2023-08-06T02:25:17;10.23;;;6.38;;
75417;SDS011;63997;52.112;5.420;2023-08-06T02:27:43;10.40;;;5.80;;
75417;SDS011;63997;52.112;5.420;2023-08-06T02:30:10;8.35;;;5.97;;
75417;SDS011;63997;52.112;5.420;2023-08-06T02:32:36;11.23;;;6.87;;
75417;SDS011;63997;52.112;5.420;2023-08-06T02:35:03;9.88;;;6.82;;
75417;SDS011;63997;52.112;5.420;2023-08-06T02:37:29;12.13;;;6.82;;
75417;SDS011;63997;52.112;5.420;2023-08-06T02:39:56;11.52;;;6.70;;
75417;SDS011;63997;52.112;5.420;2023-08-06T02:42:22;11.50;;;6.78;;
75417;SDS011;63997;52.112;5.420;2023-08-06T02:44:49;9.03;;;6.70;;
75417;SDS011;63997;52.112;5.420;2023-08-06T02:47:16;9.18;;;7.00;;
75417;SDS011;63997;52.112;5.420;2023-08-06T02:49:43;8.95;;;6.55;;
75417;SDS011;63997;52.112;5.420;2023-08-06T02:52:09;9.82;;;6.90;;
75417;SDS011;63997;52.112;5.420;2023-08-06T02:54:36;8.80;;;6.78;;
75417;SDS011;63997;52.112;5.420;2023-08-06T02:57:02;12.43;;;7.00;;
75417;SDS011;63997;52.112;5.420;2023-08-06T02:59:32;9.18;;;6.03;;
75417;SDS011;63997;52.112;5.420;2023-08-06T03:01:59;9.65;;;6.70;;
75417;SDS011;63997;52.112;5.420;2023-08-06T03:04:25;8.43;;;5.78;;
75417;SDS011;63997;52.112;5.420;2023-08-06T03:06:52;7.57;;;6.60;;
75417;SDS011;63997;52.112;5.420;2023-08-06T03:09:18;8.10;;;6.27;;
75417;SDS011;63997;52.112;5.420;2023-08-06T03:11:45;10.13;;;6.82;;
75417;SDS011;63997;52.112;5.420;2023-08-06T03:14:11;7.35;;;6.43;;
75417;SDS011;63997;52.112;5.420;2023-08-06T03:16:37;9.48;;;5.68;;
75417;SDS011;63997;52.112;5.420;2023-08-06T03:19:04;7.40;;;5.65;;
75417;SDS011;63997;52.112;5.420;2023-08-06T03:21:30;6.23;;;5.40;;
75417;SDS011;63997;52.112;5.420;2023-08-06T03:23:57;7.38;;;5.95;;
75417;SDS011;63997;52.112;5.420;2023-08-06T03:26:23;6.65;;;5.68;;
75417;SDS011;63997;52.112;5.420;2023-08-06T03:28:49;7.90;;;5.38;;
75417;SDS011;63997;52.112;5.420;2023-08-06T03:31:16;8.25;;;5.85;;
75417;SDS011;63997;52.112;5.420;2023-08-06T03:33:42;7.80;;;4.83;;
75417;SDS011;63997;52.112;5.420;2023-08-06T03:36:09;6.85;;;5.30;;
75417;SDS011;63997;52.112;5.420;2023-08-06T03:38:35;8.13;;;5.07;;
75417;SDS011;63997;52.112;5.420;2023-08-06T03:41:02;7.13;;;5.18;;
75417;SDS011;63997;52.112;5.420;2023-08-06T03:43:29;7.88;;;5.30;;
75417;SDS011;63997;52.112;5.420;2023-08-06T03:45:56;7.30;;;5.50;;
75417;SDS011;63997;52.112;5.420;2023-08-06T03:48:22;9.13;;;5.65;;
75417;SDS011;63997;52.112;5.420;2023-08-06T03:50:48;7.47;;;5.20;;
75417;SDS011;63997;52.112;5.420;2023-08-06T03:53:15;7.28;;;5.25;;
75417;SDS011;63997;52.112;5.420;2023-08-06T03:55:41;8.48;;;5.97;;
75417;SDS011;63997;52.112;5.420;2023-08-06T03:58:08;8.60;;;6.10;;
75417;SDS011;63997;52.112;5.420;2023-08-06T04:00:34;6.47;;;5.45;;
75417;SDS011;63997;52.112;5.420;2023-08-06T04:03:01;6.68;;;5.57;;
75417;SDS011;63997;52.112;5.420;2023-08-06T04:05:27;11.75;;;6.45;;
75417;SDS011;63997;52.112;5.420;2023-08-06T04:07:57;7.40;;;5.90;;
75417;SDS011;63997;52.112;5.420;2023-08-06T04:10:24;7.87;;;5.73;;
75417;SDS011;63997;52.112;5.420;2023-08-06T04:12:50;10.35;;;6.32;;
75417;SDS011;63997;52.112;5.420;2023-08-06T04:15:17;8.55;;;6.35;;
75417;SDS011;63997;52.112;5.420;2023-08-06T04:17:43;7.72;;;6.20;;
75417;SDS011;63997;52.112;5.420;2023-08-06T04:20:09;10.45;;;6.72;;
75417;SDS011;63997;52.112;5.420;2023-08-06T04:22:36;12.07;;;6.23;;
75417;SDS011;63997;52.112;5.420;2023-08-06T04:25:02;8.93;;;7.63;;
75417;SDS011;63997;52.112;5.420;2023-08-06T04:27:29;8.57;;;6.95;;
75417;SDS011;63997;52.112;5.420;2023-08-06T04:29:56;9.63;;;7.47;;
75417;SDS011;63997;52.112;5.420;2023-08-06T04:32:22;11.95;;;7.95;;
75417;SDS011;63997;52.112;5.420;2023-08-06T04:34:48;8.60;;;7.50;;
75417;SDS011;63997;52.112;5.420;2023-08-06T04:37:15;9.98;;;8.13;;
75417;SDS011;63997;52.112;5.420;2023-08-06T04:39:41;9.73;;;8.13;;
75417;SDS011;63997;52.112;5.420;2023-08-06T04:42:08;12.07;;;8.95;;
75417;SDS011;63997;52.112;5.420;2023-08-06T04:44:34;10.43;;;8.45;;
75417;SDS011;63997;52.112;5.420;2023-08-06T04:47:01;16.00;;;9.33;;
75417;SDS011;63997;52.112;5.420;2023-08-06T04:49:27;12.32;;;9.45;;
75417;SDS011;63997;52.112;5.420;2023-08-06T04:51:53;14.00;;;8.90;;
75417;SDS011;63997;52.112;5.420;2023-08-06T04:54:20;12.80;;;8.10;;
75417;SDS011;63997;52.112;5.420;2023-08-06T04:56:47;13.48;;;9.48;;
75417;SDS011;63997;52.112;5.420;2023-08-06T04:59:13;14.10;;;8.70;;
75417;SDS011;63997;52.112;5.420;2023-08-06T05:01:39;14.18;;;9.23;;
75417;SDS011;63997;52.112;5.420;2023-08-06T05:04:06;12.95;;;8.65;;
75417;SDS011;63997;52.112;5.420;2023-08-06T05:06:32;12.38;;;8.68;;
75417;SDS011;63997;52.112;5.420;2023-08-06T05:08:59;12.70;;;9.02;;
75417;SDS011;63997;52.112;5.420;2023-08-06T05:11:25;13.43;;;8.40;;
75417;SDS011;63997;52.112;5.420;2023-08-06T05:13:52;14.15;;;9.77;;
75417;SDS011;63997;52.112;5.420;2023-08-06T05:16:18;15.48;;;9.25;;
75417;SDS011;63997;52.112;5.420;2023-08-06T05:18:45;12.32;;;9.27;;
75417;SDS011;63997;52.112;5.420;2023-08-06T05:21:11;14.20;;;9.30;;
75417;SDS011;63997;52.112;5.420;2023-08-06T05:23:38;14.37;;;9.83;;
75417;SDS011;63997;52.112;5.420;2023-08-06T05:26:04;14.13;;;9.57;;
75417;SDS011;63997;52.112;5.420;2023-08-06T05:28:38;15.50;;;10.00;;
75417;SDS011;63997;52.112;5.420;2023-08-06T05:31:05;13.98;;;10.25;;
75417;SDS011;63997;52.112;5.420;2023-08-06T05:33:31;14.88;;;10.45;;
75417;SDS011;63997;52.112;5.420;2023-08-06T05:35:58;14.63;;;10.23;;
75417;SDS011;63997;52.112;5.420;2023-08-06T05:38:24;15.88;;;10.25;;
75417;SDS011;63997;52.112;5.420;2023-08-06T05:40:51;16.73;;;10.32;;
75417;SDS011;63997;52.112;5.420;2023-08-06T05:43:17;13.95;;;10.23;;
75417;SDS011;63997;52.112;5.420;2023-08-06T05:45:44;17.60;;;10.90;;
75417;SDS011;63997;52.112;5.420;2023-08-06T05:48:12;16.73;;;10.73;;
75417;SDS011;63997;52.112;5.420;2023-08-06T05:50:39;14.57;;;9.90;;
75417;SDS011;63997;52.112;5.420;2023-08-06T05:53:06;15.73;;;10.35;;
75417;SDS011;63997;52.112;5.420;2023-08-06T05:55:32;15.07;;;9.98;;
75417;SDS011;63997;52.112;5.420;2023-08-06T05:57:59;14.35;;;10.45;;
75417;SDS011;63997;52.112;5.420;2023-08-06T06:00:26;13.90;;;10.40;;
75417;SDS011;63997;52.112;5.420;2023-08-06T06:02:52;14.60;;;10.43;;
75417;SDS011;63997;52.112;5.420;2023-08-06T06:05:19;14.15;;;11.05;;
75417;SDS011;63997;52.112;5.420;2023-08-06T06:07:45;15.15;;;9.63;;
75417;SDS011;63997;52.112;5.420;2023-08-06T06:10:13;12.48;;;9.43;;
75417;SDS011;63997;52.112;5.420;2023-08-06T06:12:40;13.13;;;9.80;;
75417;SDS011;63997;52.112;5.420;2023-08-06T06:15:07;14.48;;;9.30;;
75417;SDS011;63997;52.112;5.420;2023-08-06T06:17:33;15.70;;;10.75;;
75417;SDS011;63997;52.112;5.420;2023-08-06T06:20:00;14.73;;;10.82;;
75417;SDS011;63997;52.112;5.420;2023-08-06T06:22:26;15.27;;;11.25;;
75417;SDS011;63997;52.112;5.420;2023-08-06T06:24:52;16.17;;;11.70;;
75417;SDS011;63997;52.112;5.420;2023-08-06T06:27:19;16.63;;;10.73;;
75417;SDS011;63997;52.112;5.420;2023-08-06T06:29:45;14.60;;;10.45;;
75417;SDS011;63997;52.112;5.420;2023-08-06T06:32:12;15.23;;;10.13;;
75417;SDS011;63997;52.112;5.420;2023-08-06T06:34:38;16.45;;;11.15;;
75417;SDS011;63997;52.112;5.420;2023-08-06T06:37:05;16.83;;;12.03;;
75417;SDS011;63997;52.112;5.420;2023-08-06T06:39:31;14.50;;;10.27;;
75417;SDS011;63997;52.112;5.420;2023-08-06T06:41:58;16.58;;;10.98;;
75417;SDS011;63997;52.112;5.420;2023-08-06T06:44:24;18.75;;;10.65;;
75417;SDS011;63997;52.112;5.420;2023-08-06T06:46:51;14.15;;;10.77;;
75417;SDS011;63997;52.112;5.420;2023-08-06T06:49:17;14.47;;;9.87;;
75417;SDS011;63997;52.112;5.420;2023-08-06T06:51:44;15.40;;;10.63;;
75417;SDS011;63997;52.112;5.420;2023-08-06T06:54:10;15.40;;;10.60;;
75417;SDS011;63997;52.112;5.420;2023-08-06T06:56:37;14.65;;;10.05;;
75417;SDS011;63997;52.112;5.420;2023-08-06T06:59:04;16.10;;;10.52;;
75417;SDS011;63997;52.112;5.420;2023-08-06T07:01:30;13.60;;;9.13;;
75417;SDS011;63997;52.112;5.420;2023-08-06T07:03:57;14.90;;;10.07;;
75417;SDS011;63997;52.112;5.420;2023-08-06T07:06:23;12.32;;;8.85;;
75417;SDS011;63997;52.112;5.420;2023-08-06T07:08:50;14.43;;;9.52;;
75417;SDS011;63997;52.112;5.420;2023-08-06T07:11:16;13.57;;;9.27;;
75417;SDS011;63997;52.112;5.420;2023-08-06T07:13:42;14.00;;;9.20;;
75417;SDS011;63997;52.112;5.420;2023-08-06T07:16:09;12.25;;;8.30;;
75417;SDS011;63997;52.112;5.420;2023-08-06T07:18:37;11.48;;;8.68;;
75417;SDS011;63997;52.112;5.420;2023-08-06T07:21:03;12.73;;;9.00;;
75417;SDS011;63997;52.112;5.420;2023-08-06T07:23:30;12.45;;;9.18;;
75417;SDS011;63997;52.112;5.420;2023-08-06T07:25:56;13.87;;;9.07;;
75417;SDS011;63997;52.112;5.420;2023-08-06T07:28:23;16.02;;;9.35;;
75417;SDS011;63997;52.112;5.420;2023-08-06T07:30:49;14.52;;;10.18;;
75417;SDS011;63997;52.112;5.420;2023-08-06T07:33:16;14.57;;;9.52;;
75417;SDS011;63997;52.112;5.420;2023-08-06T07:35:42;12.00;;;9.68;;
75417;SDS011;63997;52.112;5.420;2023-08-06T07:38:09;15.03;;;8.60;;
75417;SDS011;63997;52.112;5.420;2023-08-06T07:40:36;12.75;;;9.23;;
75417;SDS011;63997;52.112;5.420;2023-08-06T07:43:03;14.25;;;9.20;;
75417;SDS011;63997;52.112;5.420;2023-08-06T07:45:36;12.98;;;9.00;;
75417;SDS011;63997;52.112;5.420;2023-08-06T07:48:03;13.57;;;9.15;;
75417;SDS011;63997;52.112;5.420;2023-08-06T07:50:30;13.23;;;9.40;;
75417;SDS011;63997;52.112;5.420;2023-08-06T07:52:57;13.77;;;9.90;;
75417;SDS011;63997;52.112;5.420;2023-08-06T07:55:23;13.23;;;9.98;;
75417;SDS011;63997;52.112;5.420;2023-08-06T07:57:51;13.95;;;9.98;;
75417;SDS011;63997;52.112;5.420;2023-08-06T08:00:18;12.95;;;9.35;;
75417;SDS011;63997;52.112;5.420;2023-08-06T08:02:45;10.77;;;8.03;;
75417;SDS011;63997;52.112;5.420;2023-08-06T08:05:12;8.63;;;6.03;;
75417;SDS011;63997;52.112;5.420;2023-08-06T08:07:39;5.38;;;3.72;;
75417;SDS011;63997;52.112;5.420;2023-08-06T08:10:05;4.07;;;2.80;;
75417;SDS011;63997;52.112;5.420;2023-08-06T08:12:32;2.58;;;1.92;;
75417;SDS011;63997;52.112;5.420;2023-08-06T08:14:59;2.70;;;2.30;;
75417;SDS011;63997;52.112;5.420;2023-08-06T08:17:25;2.83;;;2.08;;
75417;SDS011;63997;52.112;5.420;2023-08-06T08:19:54;3.08;;;1.80;;
75417;SDS011;63997;52.112;5.420;2023-08-06T08:22:21;1.80;;;1.42;;
75417;SDS011;63997;52.112;5.420;2023-08-06T08:24:47;1.45;;;1.23;;
75417;SDS011;63997;52.112;5.420;2023-08-06T08:27:14;3.00;;;1.33;;
75417;SDS011;63997;52.112;5.420;2023-08-06T08:29:40;1.98;;;1.13;;
75417;SDS011;63997;52.112;5.420;2023-08-06T08:32:06;3.13;;;1.20;;
75417;SDS011;63997;52.112;5.420;2023-08-06T08:34:33;2.92;;;1.20;;
75417;SDS011;63997;52.112;5.420;2023-08-06T08:36:59;2.15;;;1.20;;
75417;SDS011;63997;52.112;5.420;2023-08-06T08:39:26;1.20;;;1.00;;
75417;SDS011;63997;52.112;5.420;2023-08-06T08:41:52;2.35;;;0.90;;
75417;SDS011;63997;52.112;5.420;2023-08-06T08:44:19;1.25;;;0.70;;
75417;SDS011;63997;52.112;5.420;2023-08-06T08:46:46;2.60;;;0.90;;
75417;SDS011;63997;52.112;5.420;2023-08-06T08:49:14;1.88;;;0.90;;
75417;SDS011;63997;52.112;5.420;2023-08-06T08:51:40;1.53;;;0.73;;
75417;SDS011;63997;52.112;5.420;2023-08-06T08:54:07;2.35;;;1.17;;
75417;SDS011;63997;52.112;5.420;2023-08-06T08:56:34;0.90;;;0.70;;
75417;SDS011;63997;52.112;5.420;2023-08-06T08:59:01;2.55;;;1.15;;
75417;SDS011;63997;52.112;5.420;2023-08-06T09:01:28;1.88;;;0.80;;
75417;SDS011;63997;52.112;5.420;2023-08-06T09:03:55;2.50;;;1.10;;
75417;SDS011;63997;52.112;5.420;2023-08-06T09:06:23;1.33;;;1.02;;
75417;SDS011;63997;52.112;5.420;2023-08-06T09:09:00;1.10;;;0.80;;
75417;SDS011;63997;52.112;5.420;2023-08-06T09:11:33;1.45;;;1.05;;
75417;SDS011;63997;52.112;5.420;2023-08-06T09:14:06;1.75;;;1.23;;
75417;SDS011;63997;52.112;5.420;2023-08-06T09:16:35;2.50;;;1.13;;
75417;SDS011;63997;52.112;5.420;2023-08-06T09:19:11;3.33;;;0.90;;
75417;SDS011;63997;52.112;5.420;2023-08-06T09:21:39;2.75;;;1.33;;
75417;SDS011;63997;52.112;5.420;2023-08-06T09:26:37;1.40;;;1.27;;
75417;SDS011;63997;52.112;5.420;2023-08-06T09:29:07;1.87;;;1.43;;
75417;SDS011;63997;52.112;5.420;2023-08-06T09:31:44;4.20;;;1.60;;
75417;SDS011;63997;52.112;5.420;2023-08-06T09:36:43;3.40;;;1.67;;
75417;SDS011;63997;52.112;5.420;2023-08-06T09:39:13;2.38;;;1.65;;
75417;SDS011;63997;52.112;5.420;2023-08-06T09:41:42;2.57;;;1.50;;
75417;SDS011;63997;52.112;5.420;2023-08-06T09:44:16;3.17;;;1.50;;
75417;SDS011;63997;52.112;5.420;2023-08-06T09:46:47;1.77;;;1.40;;
75417;SDS011;63997;52.112;5.420;2023-08-06T09:49:15;2.38;;;1.70;;
75417;SDS011;63997;52.112;5.420;2023-08-06T09:51:42;2.28;;;1.85;;
75417;SDS011;63997;52.112;5.420;2023-08-06T09:54:13;3.30;;;1.93;;
75417;SDS011;63997;52.112;5.420;2023-08-06T09:56:53;6.40;;;1.95;;
75417;SDS011;63997;52.112;5.420;2023-08-06T09:59:20;2.92;;;2.05;;
75417;SDS011;63997;52.112;5.420;2023-08-06T10:01:48;2.78;;;1.88;;
75417;SDS011;63997;52.112;5.420;2023-08-06T10:04:19;4.25;;;2.58;;
75417;SDS011;63997;52.112;5.420;2023-08-06T10:06:52;4.10;;;2.63;;
75417;SDS011;63997;52.112;5.420;2023-08-06T10:09:19;3.90;;;2.40;;
75417;SDS011;63997;52.112;5.420;2023-08-06T10:11:50;4.88;;;2.35;;
75417;SDS011;63997;52.112;5.420;2023-08-06T10:14:24;2.83;;;2.10;;
75417;SDS011;63997;52.112;5.420;2023-08-06T10:16:53;4.63;;;2.33;;
75417;SDS011;63997;52.112;5.420;2023-08-06T10:19:23;4.97;;;2.17;;
75417;SDS011;63997;52.112;5.420;2023-08-06T10:24:50;4.38;;;2.38;;
75417;SDS011;63997;52.112;5.420;2023-08-06T10:27:22;5.63;;;3.13;;
75417;SDS011;63997;52.112;5.420;2023-08-06T10:29:54;3.55;;;2.35;;
75417;SDS011;63997;52.112;5.420;2023-08-06T10:32:41;3.23;;;2.57;;
75417;SDS011;63997;52.112;5.420;2023-08-06T10:35:30;5.50;;;2.50;;
75417;SDS011;63997;52.112;5.420;2023-08-06T10:37:58;3.70;;;2.78;;
75417;SDS011;63997;52.112;5.420;2023-08-06T10:40:26;3.97;;;2.40;;
75417;SDS011;63997;52.112;5.420;2023-08-06T10:42:53;2.47;;;2.22;;
75417;SDS011;63997;52.112;5.420;2023-08-06T10:45:19;4.80;;;2.67;;
75417;SDS011;63997;52.112;5.420;2023-08-06T10:47:46;8.38;;;3.33;;
75417;SDS011;63997;52.112;5.420;2023-08-06T10:50:13;5.85;;;2.63;;
75417;SDS011;63997;52.112;5.420;2023-08-06T10:52:43;4.05;;;1.92;;
75417;SDS011;63997;52.112;5.420;2023-08-06T10:55:10;3.47;;;1.92;;
75417;SDS011;63997;52.112;5.420;2023-08-06T10:57:37;3.90;;;1.67;;
75417;SDS011;63997;52.112;5.420;2023-08-06T11:00:05;3.75;;;2.08;;
75417;SDS011;63997;52.112;5.420;2023-08-06T11:02:42;5.45;;;2.00;;
75417;SDS011;63997;52.112;5.420;2023-08-06T11:05:10;4.35;;;1.80;;
75417;SDS011;63997;52.112;5.420;2023-08-06T11:07:38;5.43;;;2.10;;
75417;SDS011;63997;52.112;5.420;2023-08-06T11:10:08;3.17;;;1.40;;
75417;SDS011;63997;52.112;5.420;2023-08-06T11:12:35;3.00;;;2.17;;
75417;SDS011;63997;52.112;5.420;2023-08-06T11:15:03;4.35;;;1.50;;
75417;SDS011;63997;52.112;5.420;2023-08-06T11:17:31;3.53;;;1.73;;
75417;SDS011;63997;52.112;5.420;2023-08-06T11:19:59;3.95;;;2.33;;
75417;SDS011;63997;52.112;5.420;2023-08-06T11:22:26;3.13;;;1.50;;
75417;SDS011;63997;52.112;5.420;2023-08-06T11:24:53;4.88;;;1.50;;
75417;SDS011;63997;52.112;5.420;2023-08-06T11:27:22;3.00;;;1.17;;
75417;SDS011;63997;52.112;5.420;2023-08-06T11:29:49;5.57;;;1.70;;
75417;SDS011;63997;52.112;5.420;2023-08-06T11:32:15;3.45;;;1.52;;
75417;SDS011;63997;52.112;5.420;2023-08-06T11:34:43;3.47;;;1.40;;
75417;SDS011;63997;52.112;5.420;2023-08-06T11:37:10;6.15;;;1.75;;
75417;SDS011;63997;52.112;5.420;2023-08-06T11:39:37;2.65;;;1.20;;
75417;SDS011;63997;52.112;5.420;2023-08-06T11:42:08;2.67;;;1.20;;
75417;SDS011;63997;52.112;5.420;2023-08-06T11:44:35;3.25;;;1.48;;
75417;SDS011;63997;52.112;5.420;2023-08-06T11:47:02;5.43;;;1.83;;
75417;SDS011;63997;52.112;5.420;2023-08-06T11:49:41;2.15;;;1.17;;
75417;SDS011;63997;52.112;5.420;2023-08-06T11:52:18;3.08;;;1.10;;
75417;SDS011;63997;52.112;5.420;2023-08-06T11:55:09;3.88;;;1.35;;
75417;SDS011;63997;52.112;5.420;2023-08-06T11:57:44;4.15;;;1.20;;
75417;SDS011;63997;52.112;5.420;2023-08-06T12:00:11;2.77;;;1.67;;
75417;SDS011;63997;52.112;5.420;2023-08-06T12:02:42;1.80;;;1.33;;
75417;SDS011;63997;52.112;5.420;2023-08-06T12:07:44;1.90;;;1.10;;
75417;SDS011;63997;52.112;5.420;2023-08-06T12:10:12;4.20;;;1.17;;
75417;SDS011;63997;52.112;5.420;2023-08-06T12:12:39;2.97;;;1.27;;
75417;SDS011;63997;52.112;5.420;2023-08-06T12:15:06;2.95;;;1.65;;
75417;SDS011;63997;52.112;5.420;2023-08-06T12:17:33;0.90;;;0.68;;
75417;SDS011;63997;52.112;5.420;2023-08-06T12:20:00;6.05;;;0.73;;
75417;SDS011;63997;52.112;5.420;2023-08-06T12:22:28;1.73;;;0.70;;
75417;SDS011;63997;52.112;5.420;2023-08-06T12:24:57;2.43;;;0.80;;
75417;SDS011;63997;52.112;5.420;2023-08-06T12:27:24;2.38;;;0.50;;
75417;SDS011;63997;52.112;5.420;2023-08-06T12:29:50;3.42;;;0.60;;
75417;SDS011;63997;52.112;5.420;2023-08-06T12:32:16;1.38;;;0.65;;
75417;SDS011;63997;52.112;5.420;2023-08-06T12:34:43;4.80;;;1.02;;
75417;SDS011;63997;52.112;5.420;2023-08-06T12:37:18;2.03;;;0.60;;
75417;SDS011;63997;52.112;5.420;2023-08-06T12:39:46;2.83;;;0.60;;
75417;SDS011;63997;52.112;5.420;2023-08-06T12:42:12;1.38;;;0.60;;
75417;SDS011;63997;52.112;5.420;2023-08-06T12:44:39;3.47;;;0.50;;
75417;SDS011;63997;52.112;5.420;2023-08-06T12:47:06;1.83;;;0.80;;
75417;SDS011;63997;52.112;5.420;2023-08-06T12:49:34;1.93;;;0.40;;
75417;SDS011;63997;52.112;5.420;2023-08-06T12:52:09;1.73;;;0.70;;
75417;SDS011;63997;52.112;5.420;2023-08-06T12:54:35;1.90;;;0.57;;
75417;SDS011;63997;52.112;5.420;2023-08-06T12:57:05;2.55;;;0.80;;
75417;SDS011;63997;52.112;5.420;2023-08-06T12:59:31;2.88;;;0.80;;
75417;SDS011;63997;52.112;5.420;2023-08-06T13:01:59;1.97;;;0.70;;
75417;SDS011;63997;52.112;5.420;2023-08-06T13:04:26;0.98;;;0.50;;
75417;SDS011;63997;52.112;5.420;2023-08-06T13:06:55;2.03;;;0.82;;
75417;SDS011;63997;52.112;5.420;2023-08-06T13:09:21;1.42;;;0.50;;
75417;SDS011;63997;52.112;5.420;2023-08-06T13:11:48;1.30;;;0.90;;
75417;SDS011;63997;52.112;5.420;2023-08-06T13:14:16;1.10;;;0.60;;
75417;SDS011;63997;52.112;5.420;2023-08-06T13:16:43;2.00;;;0.60;;
75417;SDS011;63997;52.112;5.420;2023-08-06T13:19:10;2.22;;;0.70;;
75417;SDS011;63997;52.112;5.420;2023-08-06T13:24:06;2.22;;;0.70;;
75417;SDS011;63997;52.112;5.420;2023-08-06T13:26:33;1.80;;;0.83;;
75417;SDS011;63997;52.112;5.420;2023-08-06T13:29:00;1.65;;;0.93;;
75417;SDS011;63997;52.112;5.420;2023-08-06T13:31:28;1.55;;;0.75;;
75417;SDS011;63997;52.112;5.420;2023-08-06T13:33:55;2.38;;;0.93;;
75417;SDS011;63997;52.112;5.420;2023-08-06T13:36:27;2.33;;;0.70;;
75417;SDS011;63997;52.112;5.420;2023-08-06T13:38:55;1.10;;;0.50;;
75417;SDS011;63997;52.112;5.420;2023-08-06T13:41:22;1.85;;;0.60;;
75417;SDS011;63997;52.112;5.420;2023-08-06T13:43:49;2.63;;;0.90;;
75417;SDS011;63997;52.112;5.420;2023-08-06T13:46:17;2.17;;;0.90;;
75417;SDS011;63997;52.112;5.420;2023-08-06T13:48:46;4.25;;;1.20;;
75417;SDS011;63997;52.112;5.420;2023-08-06T13:51:14;3.07;;;1.23;;
75417;SDS011;63997;52.112;5.420;2023-08-06T13:53:41;1.60;;;0.73;;
75417;SDS011;63997;52.112;5.420;2023-08-06T13:56:08;1.73;;;0.90;;
75417;SDS011;63997;52.112;5.420;2023-08-06T13:58:38;1.38;;;0.75;;
75417;SDS011;63997;52.112;5.420;2023-08-06T14:01:05;2.78;;;1.02;;
75417;SDS011;63997;52.112;5.420;2023-08-06T14:03:32;2.47;;;0.80;;
75417;SDS011;63997;52.112;5.420;2023-08-06T14:05:59;4.82;;;0.80;;
75417;SDS011;63997;52.112;5.420;2023-08-06T14:08:26;1.30;;;0.75;;
75417;SDS011;63997;52.112;5.420;2023-08-06T14:10:53;1.48;;;1.17;;
75417;SDS011;63997;52.112;5.420;2023-08-06T14:13:20;2.58;;;1.10;;
75417;SDS011;63997;52.112;5.420;2023-08-06T14:15:50;1.03;;;0.70;;
75417;SDS011;63997;52.112;5.420;2023-08-06T14:18:16;2.70;;;0.90;;
75417;SDS011;63997;52.112;5.420;2023-08-06T14:20:43;4.93;;;0.98;;
75417;SDS011;63997;52.112;5.420;2023-08-06T14:23:10;2.42;;;0.88;;
75417;SDS011;63997;52.112;5.420;2023-08-06T14:25:37;1.60;;;0.77;;
75417;SDS011;63997;52.112;5.420;2023-08-06T14:28:04;3.43;;;1.53;;
75417;SDS011;63997;52.112;5.420;2023-08-06T14:30:33;3.28;;;0.73;;
75417;SDS011;63997;52.112;5.420;2023-08-06T14:32:59;2.72;;;0.85;;
75417;SDS011;63997;52.112;5.420;2023-08-06T14:35:37;1.58;;;0.88;;
75417;SDS011;63997;52.112;5.420;2023-08-06T14:38:04;3.15;;;1.00;;
75417;SDS011;63997;52.112;5.420;2023-08-06T14:40:30;3.50;;;1.20;;
75417;SDS011;63997;52.112;5.420;2023-08-06T14:43:01;1.50;;;0.80;;
75417;SDS011;63997;52.112;5.420;2023-08-06T14:45:28;2.75;;;0.90;;
75417;SDS011;63997;52.112;5.420;2023-08-06T14:47:55;3.42;;;1.15;;
75417;SDS011;63997;52.112;5.420;2023-08-06T14:50:21;1.35;;;0.80;;
75417;SDS011;63997;52.112;5.420;2023-08-06T14:52:48;2.33;;;1.03;;
75417;SDS011;63997;52.112;5.420;2023-08-06T14:55:22;4.18;;;1.58;;
75417;SDS011;63997;52.112;5.420;2023-08-06T14:57:52;2.35;;;0.80;;
75417;SDS011;63997;52.112;5.420;2023-08-06T15:00:19;2.05;;;0.80;;
75417;SDS011;63997;52.112;5.420;2023-08-06T15:02:46;1.80;;;1.27;;
75417;SDS011;63997;52.112;5.420;2023-08-06T15:05:13;2.17;;;0.73;;
75417;SDS011;63997;52.112;5.420;2023-08-06T15:07:40;1.88;;;1.00;;